createdAt,value
2018-03-18T00:01:04.920Z,8.76
2018-03-18T00:06:04.252Z,8.77
2018-03-18T00:11:04.722Z,8.72
2018-03-18T00:16:04.151Z,8.69
2018-03-18T00:21:04.228Z,8.62
2018-03-18T00:26:04.996Z,8.63
2018-03-18T00:31:04.103Z,8.62
2018-03-18T00:36:04.458Z,8.58
2018-03-18T00:41:04.323Z,8.61
2018-03-18T00:46:03.967Z,8.56
2018-03-18T00:51:05.129Z,8.59
2018-03-18T00:56:04.453Z,8.58
2018-03-18T01:01:04.900Z,8.55
2018-03-18T01:06:05.027Z,8.54
2018-03-18T01:11:04.809Z,8.50
2018-03-18T01:16:04.760Z,8.54
2018-03-18T01:21:04.222Z,8.53
2018-03-18T01:26:04.399Z,8.50
2018-03-18T01:31:04.992Z,8.54
2018-03-18T01:36:04.327Z,8.44
2018-03-18T01:41:04.594Z,8.44
2018-03-18T01:46:05.044Z,8.48
2018-03-18T01:51:04.590Z,8.49
2018-03-18T01:56:04.785Z,8.45
2018-03-18T02:01:04.394Z,8.47
2018-03-18T02:06:04.494Z,8.47
2018-03-18T02:11:03.461Z,8.45
2018-03-18T02:16:03.989Z,8.45
2018-03-18T02:21:04.505Z,8.36
2018-03-18T02:26:04.368Z,8.36
2018-03-18T02:31:04.080Z,8.32
2018-03-18T02:36:04.639Z,8.38
2018-03-18T02:41:03.799Z,8.41
2018-03-18T02:46:04.453Z,8.44
2018-03-18T02:51:04.929Z,8.42
2018-03-18T02:56:04.687Z,8.33
2018-03-18T03:01:04.464Z,8.45
2018-03-18T03:06:04.951Z,8.32
2018-03-18T03:11:04.647Z,8.36
2018-03-18T03:16:04.346Z,8.37
2018-03-18T03:21:04.638Z,8.34
2018-03-18T03:26:04.437Z,8.28
2018-03-18T03:31:04.946Z,8.37
2018-03-18T03:36:04.418Z,8.35
2018-03-18T03:41:04.757Z,8.27
2018-03-18T03:46:04.914Z,8.28
2018-03-18T03:51:05.356Z,8.31
2018-03-18T03:56:04.516Z,8.30
2018-03-18T04:01:03.944Z,8.30
2018-03-18T04:06:04.479Z,8.28
2018-03-18T04:11:04.505Z,8.28
2018-03-18T04:16:04.645Z,8.28
2018-03-18T04:21:04.464Z,8.17
2018-03-18T04:26:03.883Z,8.24
2018-03-18T04:31:04.504Z,8.27
2018-03-18T04:36:04.986Z,8.21
2018-03-18T04:41:05.678Z,8.13
2018-03-18T04:46:04.498Z,8.15
2018-03-18T04:51:04.445Z,8.19
2018-03-18T04:56:04.532Z,8.15
2018-03-18T05:01:04.313Z,8.09
2018-03-18T05:06:04.171Z,8.14
2018-03-18T05:11:05.367Z,8.15
2018-03-18T05:16:03.556Z,8.18
2018-03-18T05:21:05.453Z,8.20
2018-03-18T05:26:05.408Z,8.26
2018-03-18T05:31:05.003Z,8.21
2018-03-18T05:36:04.179Z,8.23
2018-03-18T05:41:04.475Z,8.22
2018-03-18T05:46:04.378Z,8.14
2018-03-18T05:51:05.199Z,8.25
2018-03-18T05:56:04.992Z,8.16
2018-03-18T06:01:04.464Z,8.16
2018-03-18T06:06:04.137Z,8.26
2018-03-18T06:11:04.171Z,8.23
2018-03-18T06:16:04.784Z,8.22
2018-03-18T06:21:04.510Z,8.12
2018-03-18T06:26:04.804Z,8.16
2018-03-18T06:31:04.656Z,8.14
2018-03-18T06:36:04.711Z,8.25
2018-03-18T06:41:05.119Z,8.19
2018-03-18T06:46:04.497Z,8.14
2018-03-18T06:51:04.354Z,8.21
2018-03-18T06:56:04.475Z,8.23
2018-03-18T07:01:05.081Z,8.23
2018-03-18T07:06:05.540Z,8.13
2018-03-18T07:11:05.037Z,8.09
2018-03-18T07:16:04.823Z,8.17
2018-03-18T07:21:04.353Z,8.12
2018-03-18T07:26:04.485Z,8.02
2018-03-18T07:31:04.974Z,8.06
2018-03-18T07:36:04.463Z,8.07
2018-03-18T07:41:04.785Z,8.13
2018-03-18T07:46:04.596Z,8.13
2018-03-18T07:51:04.498Z,8.05
2018-03-18T07:56:04.894Z,8.07
2018-03-18T08:01:04.358Z,8.18
2018-03-18T08:06:04.857Z,8.13
2018-03-18T08:11:04.505Z,7.98
2018-03-18T08:16:05.304Z,8.05
2018-03-18T08:21:04.857Z,8.05
2018-03-18T08:26:04.705Z,8.06
2018-03-18T08:31:04.551Z,7.98
2018-03-18T08:36:04.671Z,7.99
2018-03-18T08:41:05.047Z,7.97
2018-03-18T08:46:04.964Z,8.04
2018-03-18T08:51:04.332Z,8.02
2018-03-18T08:56:04.530Z,8.00
2018-03-18T09:01:04.647Z,7.96
2018-03-18T09:06:04.473Z,7.94
2018-03-18T09:11:04.807Z,7.86
2018-03-18T09:16:04.353Z,7.52
2018-03-18T09:21:04.668Z,7.60
2018-03-18T09:26:04.343Z,7.37
2018-03-18T09:31:03.861Z,6.99
2018-03-18T09:36:04.978Z,7.05
2018-03-18T09:41:04.507Z,7.33
2018-03-18T09:46:04.532Z,7.79
2018-03-18T09:51:04.971Z,7.83
2018-03-18T09:56:04.735Z,7.47
2018-03-18T10:01:04.560Z,6.97
2018-03-18T10:06:05.040Z,7.43
2018-03-18T10:11:05.023Z,7.53
2018-03-18T10:16:04.894Z,7.64
2018-03-18T10:21:05.079Z,7.71
2018-03-18T10:26:04.169Z,7.72
2018-03-18T10:31:05.055Z,7.88
2018-03-18T10:36:04.206Z,7.63
2018-03-18T10:41:04.505Z,7.63
2018-03-18T10:46:04.345Z,7.77
2018-03-18T11:06:04.233Z,7.76
2018-03-18T11:11:04.248Z,7.49
2018-03-18T11:16:04.549Z,7.73
2018-03-18T11:21:04.629Z,7.55
2018-03-18T11:26:04.164Z,7.42
2018-03-18T11:31:04.224Z,7.38
2018-03-18T17:00:44.172Z,5.77
2018-03-18T17:05:43.980Z,5.73
2018-03-18T17:10:43.085Z,5.75
2018-03-18T17:15:43.567Z,5.59
2018-03-18T17:20:43.819Z,5.55
2018-03-18T17:25:44.367Z,5.47
2018-03-18T17:30:44.802Z,5.39
2018-03-18T17:35:43.967Z,5.45
2018-03-18T17:40:44.142Z,5.41
2018-03-18T17:45:44.807Z,5.36
2018-03-18T17:50:43.870Z,5.35
2018-03-18T17:55:44.671Z,5.25
2018-03-18T18:00:45.459Z,5.32
2018-03-18T18:05:45.914Z,5.61
2018-03-18T18:10:44.731Z,5.52
2018-03-18T18:15:44.308Z,5.48
2018-03-18T18:20:45.608Z,5.68
2018-03-18T18:25:44.498Z,5.97
2018-03-18T18:30:44.596Z,6.12
2018-03-18T18:35:45.626Z,6.25
2018-03-18T18:40:44.301Z,6.54
2018-03-18T18:45:44.584Z,6.40
2018-03-18T18:50:44.373Z,6.46
2018-03-18T18:55:45.626Z,6.57
2018-03-18T19:00:45.144Z,6.98
2018-03-18T19:05:44.258Z,6.85
2018-03-18T19:10:45.201Z,6.92
2018-03-18T19:15:44.752Z,6.98
2018-03-18T19:20:44.868Z,7.10
2018-03-18T19:25:45.087Z,7.14
2018-03-18T19:30:44.513Z,7.17
2018-03-18T19:35:44.699Z,7.19
2018-03-18T19:40:44.989Z,7.24
2018-03-18T19:45:44.981Z,7.27
2018-03-18T19:50:44.974Z,7.36
2018-03-18T19:55:44.338Z,7.39
2018-03-18T20:00:45.835Z,7.40
2018-03-18T20:05:45.168Z,7.49
2018-03-18T20:10:44.444Z,7.49
2018-03-18T20:15:44.624Z,7.56
2018-03-18T20:20:44.625Z,7.58
2018-03-18T20:25:45.114Z,7.46
2018-03-18T20:30:44.690Z,7.59
2018-03-18T20:35:44.292Z,7.40
2018-03-18T20:40:46.022Z,7.44
2018-03-18T20:45:45.035Z,7.53
2018-03-18T20:50:44.724Z,7.46
2018-03-18T20:55:42.565Z,7.54
2018-03-18T21:00:43.034Z,7.50
2018-03-18T21:05:44.078Z,7.50
2018-03-18T21:11:04.763Z,7.51
2018-03-18T21:16:04.316Z,7.58
2018-03-18T21:21:04.444Z,7.45
2018-03-18T21:26:03.912Z,7.42
2018-03-18T21:31:04.154Z,7.48
2018-03-18T21:36:03.741Z,7.61
2018-03-18T21:41:04.259Z,7.61
2018-03-18T21:46:03.591Z,7.59
2018-03-18T21:51:03.948Z,7.62
2018-03-18T21:56:04.398Z,7.58
2018-03-18T22:01:04.608Z,7.66
2018-03-18T22:06:06.289Z,7.64
2018-03-18T22:11:05.402Z,7.68
2018-03-18T22:16:05.699Z,7.49
2018-03-18T22:21:04.418Z,7.58
2018-03-18T22:26:03.672Z,7.66
2018-03-18T22:31:03.897Z,7.69
2018-03-18T22:36:04.443Z,7.80
2018-03-18T22:41:03.993Z,7.79
2018-03-18T22:46:04.338Z,7.79
2018-03-18T22:51:03.728Z,7.79
2018-03-18T22:56:04.059Z,7.86
2018-03-18T23:01:04.330Z,7.89
2018-03-18T23:06:03.777Z,7.92
2018-03-18T23:11:04.368Z,7.89
2018-03-18T23:16:03.677Z,7.89
2018-03-18T23:21:04.120Z,7.92
2018-03-18T23:26:04.402Z,7.93
2018-03-18T23:31:03.717Z,7.90
2018-03-18T23:36:04.677Z,7.85
2018-03-18T23:41:03.812Z,7.88
2018-03-18T23:46:04.221Z,7.89
2018-03-18T23:51:05.702Z,7.83
2018-03-18T23:56:05.500Z,7.76
